createdAt,value
2023-05-19T00:00:06.193Z,10
2023-05-19T00:01:05.903Z,10
2023-05-19T00:02:06.373Z,9
2023-05-19T00:03:06.374Z,10
2023-05-19T00:04:05.891Z,10
2023-05-19T00:05:06.211Z,10
2023-05-19T00:06:05.701Z,10
2023-05-19T00:07:05.390Z,10
2023-05-19T00:08:06.614Z,10
2023-05-19T00:09:05.842Z,10
2023-05-19T00:10:05.192Z,10
2023-05-19T00:11:06.155Z,10.1
2023-05-19T00:12:06.039Z,10
2023-05-19T00:13:06.342Z,10.1
2023-05-19T00:14:06.103Z,10.1
2023-05-19T00:15:06.480Z,10
2023-05-19T00:16:06.248Z,10
2023-05-19T00:17:06.430Z,9
2023-05-19T00:18:06.255Z,9
2023-05-19T00:19:06.675Z,10
2023-05-19T00:20:06.034Z,10
2023-05-19T00:21:06.292Z,10
2023-05-19T00:22:06.378Z,10
2023-05-19T00:23:05.842Z,10
2023-05-19T00:24:06.056Z,10
2023-05-19T00:25:06.361Z,10
2023-05-19T00:26:06.398Z,10
2023-05-19T00:27:05.613Z,10
2023-05-19T00:28:06.159Z,10
2023-05-19T00:29:06.319Z,10
2023-05-19T00:30:06.538Z,10
2023-05-19T00:31:05.982Z,10
2023-05-19T00:32:05.951Z,10
2023-05-19T00:33:05.837Z,10
2023-05-19T00:34:06.008Z,10
2023-05-19T00:35:05.876Z,10
2023-05-19T00:36:05.927Z,10
2023-05-19T00:37:04.509Z,10
2023-05-19T00:38:06.061Z,10
2023-05-19T00:39:06.649Z,10
2023-05-19T00:40:06.690Z,10
2023-05-19T00:41:05.888Z,10
2023-05-19T00:42:06.310Z,10
2023-05-19T00:43:05.647Z,10
2023-05-19T00:44:06.032Z,10
2023-05-19T00:45:06.201Z,10
2023-05-19T00:46:06.462Z,10
2023-05-19T00:47:05.889Z,10
2023-05-19T00:48:06.314Z,10
2023-05-19T00:49:05.803Z,10
2023-05-19T00:50:05.948Z,10
2023-05-19T00:51:06.310Z,9
2023-05-19T00:52:06.478Z,10
2023-05-19T00:53:06.013Z,10
2023-05-19T00:54:06.000Z,10
2023-05-19T00:55:06.417Z,9
2023-05-19T00:56:06.388Z,9
2023-05-19T00:57:05.479Z,10
2023-05-19T00:58:06.131Z,10
2023-05-19T00:59:05.804Z,10
2023-05-19T01:00:05.227Z,10
2023-05-19T01:01:06.513Z,10
2023-05-19T01:02:05.489Z,10
2023-05-19T01:03:06.251Z,10
2023-05-19T01:04:06.007Z,10
2023-05-19T01:05:06.535Z,10
2023-05-19T01:06:05.798Z,10
2023-05-19T01:07:06.314Z,10
2023-05-19T01:08:06.330Z,10
2023-05-19T01:09:06.544Z,10
2023-05-19T01:10:06.084Z,10
2023-05-19T01:11:06.511Z,9
2023-05-19T01:12:05.977Z,10
2023-05-19T01:13:06.261Z,10
2023-05-19T01:14:05.661Z,10
2023-05-19T01:15:05.710Z,10
2023-05-19T01:16:06.256Z,10
2023-05-19T01:17:06.558Z,10
2023-05-19T01:18:05.818Z,10
2023-05-19T01:19:05.785Z,10
2023-05-19T01:20:06.020Z,9
2023-05-19T01:21:04.548Z,10
2023-05-19T01:22:05.887Z,10
2023-05-19T01:23:06.314Z,10
2023-05-19T01:24:04.965Z,10
2023-05-19T01:25:05.900Z,10
2023-05-19T01:26:05.713Z,10
2023-05-19T01:27:05.982Z,9
2023-05-19T01:28:06.422Z,9
2023-05-19T01:29:06.743Z,10
2023-05-19T01:30:06.720Z,10
2023-05-19T01:31:06.187Z,10
2023-05-19T01:32:06.692Z,10
2023-05-19T01:33:05.818Z,10
2023-05-19T01:34:06.114Z,10
2023-05-19T01:35:06.791Z,10
2023-05-19T01:36:06.030Z,10
2023-05-19T01:37:06.061Z,10
2023-05-19T01:38:06.531Z,10
2023-05-19T01:39:05.750Z,10
2023-05-19T01:40:06.254Z,10
2023-05-19T01:41:06.431Z,10
2023-05-19T01:42:05.882Z,10
2023-05-19T01:43:05.932Z,10
2023-05-19T01:44:05.427Z,10
2023-05-19T01:45:06.238Z,10
2023-05-19T01:46:06.760Z,10
2023-05-19T01:47:05.408Z,10
2023-05-19T01:48:08.521Z,9
2023-05-19T01:49:06.338Z,9
2023-05-19T01:50:06.230Z,10
2023-05-19T01:51:06.350Z,9.9
2023-05-19T01:52:06.407Z,9.9
2023-05-19T01:53:06.247Z,9.9
2023-05-19T01:54:06.044Z,9.9
2023-05-19T01:55:06.363Z,9.9
2023-05-19T01:56:06.596Z,9.9
2023-05-19T01:57:05.810Z,9.9
2023-05-19T01:58:06.255Z,9.9
2023-05-19T01:59:06.373Z,9.9
2023-05-19T02:00:05.825Z,9.8
2023-05-19T02:01:05.738Z,9.8
2023-05-19T02:02:06.018Z,9.8
2023-05-19T02:03:06.542Z,9.8
2023-05-19T02:04:05.723Z,9.8
2023-05-19T02:05:05.814Z,9.8
2023-05-19T02:06:06.102Z,9.8
2023-05-19T02:07:06.080Z,9.8
2023-05-19T02:08:06.353Z,9.8
2023-05-19T02:09:06.790Z,9.8
2023-05-19T02:10:05.765Z,9.8
2023-05-19T02:11:05.005Z,9.8
2023-05-19T02:12:05.820Z,9.8
2023-05-19T02:13:06.347Z,9.8
2023-05-19T02:14:04.704Z,9.8
2023-05-19T02:15:05.762Z,9.7
2023-05-19T02:16:06.130Z,9.8
2023-05-19T02:17:06.709Z,9.8
2023-05-19T02:18:05.898Z,9.8
2023-05-19T02:19:06.207Z,9.8
2023-05-19T02:20:06.198Z,9.8
2023-05-19T02:21:06.185Z,9
2023-05-19T02:22:06.528Z,9.8
2023-05-19T02:23:06.154Z,9.8
2023-05-19T02:24:05.737Z,9.8
2023-05-19T02:25:06.010Z,9.8
2023-05-19T02:26:06.296Z,9.8
2023-05-19T02:27:06.521Z,9.8
2023-05-19T02:28:05.920Z,9.8
2023-05-19T02:29:06.265Z,9.8
2023-05-19T02:30:06.207Z,9.8
2023-05-19T02:31:05.358Z,9.8
2023-05-19T02:32:05.818Z,9.8
2023-05-19T02:33:06.603Z,9.8
2023-05-19T02:34:05.478Z,9.8
2023-05-19T02:35:06.604Z,9.8
2023-05-19T02:36:06.242Z,9.8
2023-05-19T02:37:06.587Z,9.8
2023-05-19T02:38:05.718Z,9.8
2023-05-19T02:39:06.324Z,9.8
2023-05-19T02:40:06.150Z,9.8
2023-05-19T02:41:06.092Z,9.8
2023-05-19T02:42:06.211Z,9.8
2023-05-19T02:43:06.511Z,9.8
2023-05-19T02:44:05.757Z,9.8
2023-05-19T02:45:05.958Z,9.8
2023-05-19T02:46:06.159Z,9
2023-05-19T02:47:06.256Z,9.8
2023-05-19T02:48:06.721Z,9.8
2023-05-19T02:49:05.970Z,9.8
2023-05-19T02:50:06.215Z,9.8
2023-05-19T02:51:06.322Z,9.8
2023-05-19T02:52:06.462Z,9.8
2023-05-19T02:53:05.759Z,9.7
2023-05-19T02:54:06.105Z,9.8
2023-05-19T02:55:06.315Z,9.7
2023-05-19T02:56:05.802Z,9.7
2023-05-19T02:57:06.145Z,9.7
2023-05-19T02:58:06.333Z,9.7
2023-05-19T02:59:05.743Z,9.7
2023-05-19T03:00:05.939Z,9.8
2023-05-19T03:01:04.839Z,9.7
2023-05-19T03:02:06.275Z,9.8
2023-05-19T03:03:05.917Z,9.8
2023-05-19T03:04:05.929Z,9.7
2023-05-19T03:05:06.039Z,9.7
2023-05-19T03:06:06.296Z,9.7
2023-05-19T03:07:06.725Z,9.8
2023-05-19T03:08:05.830Z,9.7
2023-05-19T03:09:06.228Z,9.7
2023-05-19T03:10:06.122Z,9.8
2023-05-19T03:11:06.431Z,9.7
2023-05-19T03:12:06.490Z,9.7
2023-05-19T03:13:06.020Z,9.7
2023-05-19T03:14:06.076Z,9.8
2023-05-19T03:15:06.546Z,9.8
2023-05-19T03:16:05.953Z,9.8
2023-05-19T03:17:06.420Z,9.8
2023-05-19T03:18:06.586Z,9.8
2023-05-19T03:19:06.583Z,9.8
2023-05-19T03:20:06.141Z,9.8
2023-05-19T03:21:05.522Z,9.8
2023-05-19T03:22:06.517Z,9.7
2023-05-19T03:23:05.906Z,9.8
2023-05-19T03:24:05.403Z,9.8
2023-05-19T03:25:06.479Z,9.7
2023-05-19T03:26:05.549Z,9.8
2023-05-19T03:27:06.496Z,9.8
2023-05-19T03:28:06.283Z,9.8
2023-05-19T03:29:06.181Z,9
2023-05-19T03:30:06.850Z,9.8
2023-05-19T03:31:06.087Z,9.8
2023-05-19T03:32:06.116Z,9.7
2023-05-19T03:33:06.448Z,9.8
2023-05-19T03:34:06.032Z,9.8
2023-05-19T03:35:06.036Z,9.7
2023-05-19T03:36:06.276Z,9.7
2023-05-19T03:37:06.623Z,9.7
2023-05-19T03:38:05.839Z,9.8
2023-05-19T03:39:05.875Z,9.8
2023-05-19T03:40:06.640Z,9.7
2023-05-19T03:41:05.810Z,9.7
2023-05-19T03:42:04.824Z,9.8
2023-05-19T03:43:06.856Z,9.8
2023-05-19T03:44:06.075Z,9.7
2023-05-19T03:45:05.066Z,9.7
2023-05-19T03:46:05.668Z,9.7
2023-05-19T03:47:06.186Z,9.7
2023-05-19T03:48:04.905Z,9.7
2023-05-19T03:49:05.948Z,9.8
2023-05-19T03:50:05.900Z,9.8
2023-05-19T03:51:06.070Z,9.7
2023-05-19T03:52:05.887Z,9.7
2023-05-19T03:53:05.794Z,9.8
2023-05-19T03:54:05.751Z,9.8
2023-05-19T03:55:06.059Z,9.8
2023-05-19T03:56:06.620Z,9
2023-05-19T03:57:06.036Z,9.8
2023-05-19T03:58:06.328Z,9.8
2023-05-19T03:59:06.513Z,9.8
2023-05-19T04:00:05.687Z,9.8
2023-05-19T04:01:06.720Z,9.8
2023-05-19T04:02:05.708Z,9.8
2023-05-19T04:03:06.181Z,9.8
2023-05-19T04:04:06.338Z,9
2023-05-19T04:05:05.647Z,9.8
2023-05-19T04:06:05.958Z,9.8
2023-05-19T04:07:06.488Z,9.8
2023-05-19T04:08:05.738Z,9.8
2023-05-19T04:09:06.398Z,9.7
2023-05-19T04:10:06.464Z,9.8
2023-05-19T04:11:06.404Z,9.8
2023-05-19T04:12:06.411Z,9.8
2023-05-19T04:13:06.286Z,9.8
2023-05-19T04:14:06.296Z,9.8
2023-05-19T04:15:06.329Z,9.8
2023-05-19T04:16:06.344Z,9.8
2023-05-19T04:17:06.383Z,9.8
2023-05-19T04:18:06.197Z,9.7
2023-05-19T04:19:06.385Z,9.8
2023-05-19T04:20:05.805Z,9.8
2023-05-19T04:21:06.386Z,9.8
2023-05-19T04:22:05.690Z,9.8
2023-05-19T04:23:06.014Z,9.8
2023-05-19T04:24:06.348Z,9.8
2023-05-19T04:25:05.834Z,9.8
2023-05-19T04:26:06.180Z,9.8
2023-05-19T04:27:06.176Z,9.8
2023-05-19T04:28:05.954Z,9.8
2023-05-19T04:29:06.486Z,9
2023-05-19T04:30:05.639Z,9.8
2023-05-19T04:31:05.997Z,9.9
2023-05-19T04:32:05.181Z,9.9
2023-05-19T04:33:06.323Z,9.8
2023-05-19T04:34:05.639Z,9.9
2023-05-19T04:35:05.061Z,9.9
2023-05-19T04:36:06.107Z,9.9
2023-05-19T04:37:06.003Z,10
2023-05-19T04:38:05.881Z,10
2023-05-19T04:39:05.894Z,9.9
2023-05-19T04:40:06.244Z,10
2023-05-19T04:41:05.917Z,10
2023-05-19T04:42:06.170Z,10
2023-05-19T04:43:06.203Z,10
2023-05-19T04:44:06.698Z,10
2023-05-19T04:45:05.689Z,10
2023-05-19T04:46:06.034Z,10
2023-05-19T04:47:06.262Z,10
2023-05-19T04:48:06.612Z,10
2023-05-19T04:49:05.759Z,10
2023-05-19T04:50:06.205Z,10
2023-05-19T04:51:06.416Z,10
2023-05-19T04:52:05.760Z,10
2023-05-19T04:53:06.108Z,10
2023-05-19T04:54:06.402Z,10
2023-05-19T04:55:05.422Z,10
2023-05-19T04:56:06.291Z,10.1
2023-05-19T04:57:05.674Z,10
2023-05-19T04:58:05.562Z,10.1
2023-05-19T04:59:06.596Z,10.1
2023-05-19T05:00:06.695Z,10.1
2023-05-19T05:01:05.900Z,10.1
2023-05-19T05:02:06.427Z,10.1
2023-05-19T05:03:06.301Z,10.2
2023-05-19T05:04:06.299Z,10.2
2023-05-19T05:05:06.626Z,10.2
2023-05-19T05:07:06.548Z,10.2
2023-05-19T05:08:05.988Z,10.2
2023-05-19T05:09:06.106Z,10.2
2023-05-19T05:10:06.359Z,10.2
2023-05-19T05:11:06.694Z,10
2023-05-19T05:12:05.895Z,10.2
2023-05-19T05:13:06.091Z,10.2
2023-05-19T05:14:06.563Z,10.3
2023-05-19T05:15:05.715Z,10.3
2023-05-19T05:16:06.609Z,10.2
2023-05-19T05:17:05.534Z,10.3
2023-05-19T05:18:05.776Z,10.2
2023-05-19T05:19:05.023Z,10.3
2023-05-19T05:20:06.013Z,10.3
2023-05-19T05:21:06.342Z,10.3
2023-05-19T05:22:06.493Z,10.3
2023-05-19T05:23:06.130Z,10.3
2023-05-19T05:24:06.065Z,10.4
2023-05-19T05:25:06.169Z,10.4
2023-05-19T05:26:06.558Z,10.3
2023-05-19T05:27:05.817Z,10.3
2023-05-19T05:28:05.992Z,10
2023-05-19T05:29:05.855Z,10
2023-05-19T05:30:06.263Z,10.4
2023-05-19T05:31:06.789Z,10.4
2023-05-19T05:32:05.670Z,10.4
2023-05-19T05:33:06.020Z,10.4
2023-05-19T05:34:05.842Z,10.4
2023-05-19T05:35:06.421Z,10.4
2023-05-19T05:36:05.987Z,10.4
2023-05-19T05:37:06.250Z,10.4
2023-05-19T05:38:06.558Z,10.5
2023-05-19T05:39:06.458Z,10.5
2023-05-19T05:40:05.863Z,10.5
2023-05-19T05:41:06.284Z,10.5
2023-05-19T05:42:05.463Z,10.5
2023-05-19T05:43:06.680Z,10.5
2023-05-19T05:44:05.901Z,10.5
2023-05-19T05:45:05.791Z,10.5
2023-05-19T05:46:06.315Z,10.6
2023-05-19T05:47:06.009Z,10
2023-05-19T05:48:06.544Z,11
2023-05-19T05:49:06.690Z,10.6
2023-05-19T05:50:05.954Z,10.6
2023-05-19T05:51:06.429Z,10.6
2023-05-19T05:52:06.902Z,10.7
2023-05-19T05:53:05.705Z,10.7
2023-05-19T05:54:05.908Z,10.7
2023-05-19T05:55:06.282Z,10.7
2023-05-19T05:56:06.346Z,10.8
2023-05-19T05:57:06.649Z,10.8
2023-05-19T05:58:05.675Z,10.8
2023-05-19T05:59:06.179Z,10.8
2023-05-19T06:00:06.546Z,10.8
2023-05-19T06:01:05.761Z,10.8
2023-05-19T06:02:06.165Z,10.8
2023-05-19T06:03:06.272Z,10.9
2023-05-19T06:04:06.614Z,10.9
2023-05-19T06:05:05.881Z,11
2023-05-19T06:06:05.905Z,11
2023-05-19T06:07:06.145Z,11
2023-05-19T06:08:06.605Z,11.1
2023-05-19T06:09:05.263Z,11.1
2023-05-19T06:10:06.276Z,11.1
2023-05-19T06:11:05.996Z,11.1
2023-05-19T06:12:06.117Z,11.2
2023-05-19T06:13:06.140Z,11.2
2023-05-19T06:14:05.817Z,11.2
2023-05-19T06:15:06.327Z,11.2
2023-05-19T06:16:05.950Z,11.2
2023-05-19T06:17:05.921Z,11.3
2023-05-19T06:18:05.755Z,11.4
2023-05-19T06:19:06.392Z,11.3
2023-05-19T06:20:06.740Z,11.3
2023-05-19T06:21:06.470Z,11.4
2023-05-19T06:22:05.934Z,11.4
2023-05-19T06:23:06.208Z,11.4
2023-05-19T06:24:06.385Z,11.4
2023-05-19T06:25:06.534Z,11.5
2023-05-19T06:26:05.868Z,11.4
2023-05-19T06:27:06.181Z,11.5
2023-05-19T06:28:06.305Z,11.4
2023-05-19T06:29:06.750Z,11.5
2023-05-19T06:30:05.831Z,11.5
2023-05-19T06:31:06.189Z,11.5
2023-05-19T06:32:05.569Z,11.5
2023-05-19T06:33:04.813Z,11.6
2023-05-19T06:34:05.892Z,11.6
2023-05-19T06:35:05.598Z,11.7
2023-05-19T06:36:06.014Z,11.7
2023-05-19T06:37:06.634Z,11.7
2023-05-19T06:38:06.545Z,12
2023-05-19T06:39:05.539Z,12.1
2023-05-19T06:40:06.152Z,12.1
2023-05-19T06:41:06.310Z,12.2
2023-05-19T06:42:06.231Z,12.4
2023-05-19T06:43:06.651Z,12.5
2023-05-19T06:44:05.908Z,12.5
2023-05-19T06:45:06.112Z,12.6
2023-05-19T06:46:06.166Z,12
2023-05-19T06:47:06.510Z,12
2023-05-19T06:48:05.781Z,12.8
2023-05-19T06:49:06.089Z,12.8
2023-05-19T06:50:06.371Z,12.8
2023-05-19T06:51:06.196Z,12.8
2023-05-19T06:52:06.543Z,12.7
2023-05-19T06:53:05.611Z,12.7
2023-05-19T06:54:05.736Z,12.7
2023-05-19T06:55:06.090Z,12.6
2023-05-19T06:56:05.319Z,12.6
2023-05-19T06:57:06.206Z,12.5
2023-05-19T06:58:05.987Z,12.4
2023-05-19T06:59:05.259Z,12.4
2023-05-19T07:00:06.189Z,12.4
2023-05-19T07:01:05.903Z,12.3
2023-05-19T07:02:05.858Z,12.3
2023-05-19T07:03:05.937Z,12.2
2023-05-19T07:04:06.260Z,12.3
2023-05-19T07:05:06.354Z,12.3
2023-05-19T07:06:08.024Z,12.2
2023-05-19T07:07:06.345Z,12.3
2023-05-19T07:08:06.454Z,12.3
2023-05-19T07:09:06.096Z,12.2
2023-05-19T07:10:06.716Z,12.2
2023-05-19T07:11:06.234Z,12.2
2023-05-19T07:12:06.351Z,12.2
2023-05-19T07:13:06.577Z,12.1
2023-05-19T07:14:05.870Z,12.1
2023-05-19T07:15:05.734Z,12.1
2023-05-19T07:16:06.323Z,12.1
2023-05-19T07:17:06.345Z,12
2023-05-19T07:18:06.508Z,12.1
2023-05-19T07:19:05.862Z,12.1
2023-05-19T07:20:04.682Z,12.1
2023-05-19T07:21:05.789Z,12.1
2023-05-19T07:22:05.684Z,12
2023-05-19T07:23:04.563Z,12
2023-05-19T07:24:06.727Z,12
2023-05-19T07:25:05.672Z,12
2023-05-19T07:26:06.703Z,12
2023-05-19T07:27:06.641Z,12
2023-05-19T07:28:06.296Z,12
2023-05-19T07:29:05.965Z,12
2023-05-19T07:30:06.477Z,12
2023-05-19T07:31:06.329Z,12
2023-05-19T07:32:06.647Z,12
2023-05-19T07:33:05.902Z,12
2023-05-19T07:34:06.284Z,11.9
2023-05-19T07:35:06.530Z,11.9
2023-05-19T07:36:06.473Z,12
2023-05-19T07:37:06.475Z,11.9
2023-05-19T07:38:05.944Z,12
2023-05-19T07:39:06.276Z,12
2023-05-19T07:40:05.198Z,11.9
2023-05-19T07:41:06.346Z,12
2023-05-19T07:42:06.238Z,12
2023-05-19T07:43:05.408Z,12
2023-05-19T07:44:06.222Z,12
2023-05-19T07:45:06.285Z,12
2023-05-19T07:46:05.127Z,12
2023-05-19T07:47:06.150Z,12
2023-05-19T07:48:06.231Z,12
2023-05-19T07:49:06.016Z,12
2023-05-19T07:50:06.062Z,12.1
2023-05-19T07:51:06.750Z,12.1
2023-05-19T07:52:06.057Z,12
2023-05-19T07:53:06.243Z,12.1
2023-05-19T07:54:06.402Z,12.1
2023-05-19T07:55:06.134Z,12.1
2023-05-19T07:56:06.288Z,12.1
2023-05-19T07:57:06.654Z,12.1
2023-05-19T07:58:06.021Z,12.1
2023-05-19T07:59:06.205Z,12.1
2023-05-19T08:00:06.347Z,12.1
2023-05-19T08:01:06.116Z,12.1
2023-05-19T08:02:06.685Z,12.2
2023-05-19T08:03:06.071Z,12.2
2023-05-19T08:04:06.327Z,12.2
2023-05-19T08:05:06.323Z,12.3
2023-05-19T08:06:06.063Z,12
2023-05-19T08:07:06.059Z,12.4
2023-05-19T08:08:06.467Z,12.4
2023-05-19T08:09:06.128Z,12.3
2023-05-19T08:10:04.732Z,12.4
2023-05-19T08:11:06.049Z,12.4
2023-05-19T08:12:05.721Z,12.4
2023-05-19T08:13:04.616Z,12.4
2023-05-19T08:14:06.912Z,12.5
2023-05-19T08:15:05.948Z,12.6
2023-05-19T08:16:06.597Z,12.6
2023-05-19T08:17:06.731Z,12.6
2023-05-19T08:18:05.975Z,13
2023-05-19T08:19:06.140Z,13
2023-05-19T08:20:06.435Z,12.6
2023-05-19T08:21:05.593Z,12.7
2023-05-19T08:22:06.142Z,12.7
2023-05-19T08:23:06.421Z,12.7
2023-05-19T08:24:06.657Z,12.8
2023-05-19T08:25:05.828Z,12.8
2023-05-19T08:26:06.292Z,12.8
2023-05-19T08:27:06.485Z,12.8
2023-05-19T08:28:05.653Z,12.9
2023-05-19T08:29:05.664Z,13
2023-05-19T08:30:05.324Z,13
2023-05-19T08:31:05.935Z,13
2023-05-19T08:32:05.987Z,13.1
2023-05-19T08:33:05.481Z,13.2
2023-05-19T08:34:06.041Z,13.2
2023-05-19T08:35:06.045Z,13.2
2023-05-19T08:36:06.266Z,13.2
2023-05-19T08:37:05.979Z,13.2
2023-05-19T08:38:06.237Z,13.2
2023-05-19T08:39:06.400Z,13.2
2023-05-19T08:40:06.824Z,13.2
2023-05-19T08:41:05.445Z,13.1
2023-05-19T08:42:05.868Z,13.1
2023-05-19T08:43:06.229Z,13.1
2023-05-19T08:44:06.592Z,13.2
2023-05-19T08:45:05.836Z,13.1
2023-05-19T08:46:06.489Z,13.1
2023-05-19T08:47:05.768Z,13.2
2023-05-19T08:48:06.327Z,13.2
2023-05-19T08:49:06.565Z,13.2
2023-05-19T08:50:05.605Z,13
2023-05-19T08:51:05.850Z,13.2
2023-05-19T08:52:06.235Z,13.2
2023-05-19T08:53:07.179Z,13.3
2023-05-19T08:54:06.210Z,13.3
2023-05-19T08:55:06.314Z,13.2
2023-05-19T08:56:06.005Z,13.2
2023-05-19T08:57:04.862Z,13.2
2023-05-19T08:58:05.597Z,13.2
2023-05-19T08:59:05.802Z,13.2
2023-05-19T09:00:06.044Z,13.2
2023-05-19T09:01:06.726Z,13.2
2023-05-19T09:02:06.494Z,13.3
2023-05-19T09:03:17.955Z,13.4
2023-05-19T09:04:05.874Z,13.4
2023-05-19T09:05:06.613Z,13.4
2023-05-19T09:06:05.882Z,13.4
2023-05-19T09:07:06.008Z,13.4
2023-05-19T09:08:06.350Z,13.4
2023-05-19T09:09:05.545Z,13.4
2023-05-19T09:10:05.816Z,13.4
2023-05-19T09:11:05.554Z,13.5
2023-05-19T09:12:06.125Z,13.5
2023-05-19T09:13:06.254Z,13.5
2023-05-19T09:14:06.781Z,13.4
2023-05-19T09:15:06.049Z,13.4
2023-05-19T09:16:06.378Z,13.4
2023-05-19T09:17:05.772Z,13.5
2023-05-19T09:18:06.332Z,13.5
2023-05-19T09:19:05.775Z,13.5
2023-05-19T09:20:06.270Z,13
2023-05-19T09:21:06.595Z,13.6
2023-05-19T09:22:06.362Z,13.6
2023-05-19T09:23:05.474Z,13.7
2023-05-19T09:24:06.209Z,13.7
2023-05-19T09:25:06.707Z,13.7
2023-05-19T09:26:05.999Z,13.7
2023-05-19T09:27:06.072Z,14
2023-05-19T09:28:06.409Z,13.7
2023-05-19T09:29:05.698Z,13.7
2023-05-19T09:30:06.004Z,13.8
2023-05-19T09:31:05.656Z,13.8
2023-05-19T09:32:05.875Z,13.8
2023-05-19T09:33:06.199Z,13.9
2023-05-19T09:34:06.599Z,14.2
2023-05-19T09:35:05.748Z,14.4
2023-05-19T09:36:05.831Z,14.5
2023-05-19T09:37:06.172Z,14.6
2023-05-19T09:38:06.520Z,14.8
2023-05-19T09:39:06.525Z,14.8
2023-05-19T09:40:05.775Z,14.9
2023-05-19T09:41:04.948Z,15
2023-05-19T09:42:06.379Z,15.1
2023-05-19T09:43:05.908Z,15.1
2023-05-19T09:44:05.237Z,15.2
2023-05-19T09:45:05.936Z,15.2
2023-05-19T09:46:05.877Z,15.2
2023-05-19T09:47:05.918Z,15.2
2023-05-19T09:48:06.504Z,15.3
2023-05-19T09:49:05.809Z,15.3
2023-05-19T09:50:05.903Z,15.4
2023-05-19T09:51:05.802Z,15.4
2023-05-19T09:52:05.797Z,15.3
2023-05-19T09:53:06.288Z,15.3
2023-05-19T09:54:06.631Z,15.3
2023-05-19T09:55:05.754Z,15.3
2023-05-19T09:56:06.267Z,15.3
2023-05-19T09:57:07.852Z,15.3
2023-05-19T09:58:05.789Z,15.2
2023-05-19T09:59:06.104Z,15.2
2023-05-19T10:00:06.356Z,15.1
2023-05-19T10:01:06.134Z,15
2023-05-19T10:02:05.951Z,15.1
2023-05-19T10:03:06.577Z,15
2023-05-19T10:04:06.139Z,14.9
2023-05-19T10:05:06.221Z,15
2023-05-19T10:06:05.580Z,15
2023-05-19T10:07:06.037Z,15
2023-05-19T10:08:04.814Z,15
2023-05-19T10:09:05.649Z,15.2
2023-05-19T10:10:06.610Z,15.2
2023-05-19T10:11:06.620Z,15.3
2023-05-19T10:12:06.483Z,15.3
2023-05-19T10:13:06.588Z,15.3
2023-05-19T10:14:05.564Z,15.3
2023-05-19T10:15:06.304Z,15.3
2023-05-19T10:16:06.464Z,15.3
2023-05-19T10:17:06.007Z,15.3
2023-05-19T10:18:06.017Z,15.3
2023-05-19T10:19:06.374Z,15.4
2023-05-19T10:20:06.608Z,15.4
2023-05-19T10:21:06.383Z,15.5
2023-05-19T10:22:05.662Z,15.7
2023-05-19T10:23:05.947Z,15.9
2023-05-19T10:24:06.323Z,15.9
2023-05-19T10:25:05.538Z,16.2
2023-05-19T10:26:05.941Z,16.2
2023-05-19T10:27:06.267Z,16.4
2023-05-19T10:28:06.441Z,16.5
2023-05-19T10:29:06.444Z,16.5
2023-05-19T10:30:05.841Z,16.7
2023-05-19T10:31:05.955Z,16.8
2023-05-19T10:32:06.138Z,16.9
2023-05-19T10:33:06.189Z,16.9
2023-05-19T10:34:06.463Z,17
2023-05-19T10:35:05.726Z,17
2023-05-19T10:36:05.878Z,17.1
2023-05-19T10:37:06.021Z,17.2
2023-05-19T10:38:06.095Z,17.2
2023-05-19T10:39:06.673Z,17.3
2023-05-19T10:40:06.024Z,17.3
2023-05-19T10:41:06.305Z,17.3
2023-05-19T10:42:05.899Z,17.4
2023-05-19T10:43:05.997Z,17.4
2023-05-19T10:44:06.190Z,17.6
2023-05-19T10:45:06.330Z,17.5
2023-05-19T10:46:06.376Z,17.5
2023-05-19T10:47:05.918Z,17.5
2023-05-19T10:48:06.199Z,17.4
2023-05-19T10:49:06.382Z,17.4
2023-05-19T10:50:06.706Z,17.3
2023-05-19T10:51:06.017Z,17.3
2023-05-19T10:52:06.133Z,17.4
2023-05-19T10:53:05.884Z,17.4
2023-05-19T10:54:06.019Z,17.4
2023-05-19T10:55:05.649Z,17.4
2023-05-19T10:56:05.884Z,17.4
2023-05-19T10:57:05.689Z,17.4
2023-05-19T10:58:05.795Z,17.3
2023-05-19T10:59:06.135Z,17.3
2023-05-19T11:00:06.530Z,17.3
2023-05-19T11:01:06.100Z,17.3
2023-05-19T11:02:06.374Z,17.4
2023-05-19T11:03:06.812Z,17.4
2023-05-19T11:04:05.821Z,17.4
2023-05-19T11:05:06.368Z,17.4
2023-05-19T11:06:06.690Z,17.6
2023-05-19T11:07:06.146Z,17.6
2023-05-19T11:08:05.945Z,17.6
2023-05-19T11:09:06.487Z,17.6
2023-05-19T11:10:05.965Z,17.6
2023-05-19T11:11:06.529Z,17.6
2023-05-19T11:12:05.523Z,17.6
2023-05-19T11:13:06.427Z,17.6
2023-05-19T11:14:05.873Z,17.6
2023-05-19T11:15:05.579Z,17.7
2023-05-19T11:16:06.392Z,17.8
2023-05-19T11:17:06.724Z,17.8
2023-05-19T11:18:06.276Z,17.8
2023-05-19T11:19:06.513Z,17.6
2023-05-19T11:20:06.334Z,17.7
2023-05-19T11:21:06.093Z,17.6
2023-05-19T11:22:06.394Z,17.6
2023-05-19T11:23:06.243Z,17.7
2023-05-19T11:24:06.506Z,17.8
2023-05-19T11:25:05.907Z,17.8
2023-05-19T11:26:06.335Z,17.8
2023-05-19T11:27:06.520Z,17.8
2023-05-19T11:28:05.936Z,17.8
2023-05-19T11:29:05.822Z,17.9
2023-05-19T11:30:06.288Z,17.8
2023-05-19T11:31:06.648Z,17.8
2023-05-19T11:32:05.966Z,18
2023-05-19T11:33:06.533Z,18
2023-05-19T11:34:06.249Z,18
2023-05-19T11:35:05.992Z,18.1
2023-05-19T11:36:05.121Z,18.1
2023-05-19T11:37:06.228Z,18.2
2023-05-19T11:38:06.128Z,18.3
2023-05-19T11:39:05.076Z,18.4
2023-05-19T11:40:05.873Z,18.4
2023-05-19T11:41:06.044Z,18.4
2023-05-19T11:42:06.314Z,19
2023-05-19T11:43:05.853Z,19
2023-05-19T11:44:05.822Z,18.5
2023-05-19T11:45:05.724Z,18.4
2023-05-19T11:46:06.579Z,18.5
2023-05-19T11:47:05.991Z,18.4
2023-05-19T11:48:05.636Z,18.4
2023-05-19T11:49:05.784Z,18.4
2023-05-19T11:50:06.470Z,18.4
2023-05-19T11:51:06.475Z,18.4
2023-05-19T11:52:05.850Z,18.5
2023-05-19T11:53:06.111Z,18.5
2023-05-19T11:54:06.180Z,18.5
2023-05-19T11:55:06.707Z,18.5
2023-05-19T11:56:06.139Z,18.5
2023-05-19T11:57:06.200Z,18.5
2023-05-19T11:58:06.585Z,18.4
2023-05-19T11:59:05.658Z,18.4
2023-05-19T12:00:06.040Z,18.4
2023-05-19T12:01:05.822Z,18.4
2023-05-19T12:02:05.710Z,18.4
2023-05-19T12:03:06.745Z,18.3
2023-05-19T12:04:05.880Z,18.3
2023-05-19T12:05:05.657Z,18.2
2023-05-19T12:06:06.392Z,18.2
2023-05-19T12:07:06.324Z,18.3
2023-05-19T12:08:06.224Z,18.4
2023-05-19T12:09:06.151Z,18.4
2023-05-19T12:10:06.671Z,18.5
2023-05-19T12:11:06.138Z,18.5
2023-05-19T12:12:06.276Z,18.5
2023-05-19T12:13:05.957Z,18.5
2023-05-19T12:14:06.458Z,18.6
2023-05-19T12:15:05.527Z,18.6
2023-05-19T12:16:06.378Z,18.5
2023-05-19T12:17:05.613Z,18.5
2023-05-19T12:18:06.020Z,18.4
2023-05-19T12:19:06.037Z,18.4
2023-05-19T12:20:06.406Z,18.2
2023-05-19T12:21:05.589Z,18.2
2023-05-19T12:22:05.988Z,18.2
2023-05-19T12:23:06.196Z,18.2
2023-05-19T12:24:06.452Z,18.3
2023-05-19T12:25:05.879Z,18.4
2023-05-19T12:26:06.207Z,18.4
2023-05-19T12:27:06.200Z,18.4
2023-05-19T12:28:06.033Z,18.4
2023-05-19T12:29:05.020Z,18.4
2023-05-19T12:30:05.621Z,18.4
2023-05-19T12:31:06.513Z,18.4
2023-05-19T12:32:05.708Z,18.4
2023-05-19T12:33:05.934Z,18.6
2023-05-19T12:34:06.127Z,19
2023-05-19T12:35:06.566Z,19
2023-05-19T12:36:06.411Z,18.6
2023-05-19T12:37:06.632Z,18.7
2023-05-19T12:38:05.859Z,18.7
2023-05-19T12:39:05.913Z,18.7
2023-05-19T12:40:06.278Z,18.8
2023-05-19T12:41:05.727Z,18.8
2023-05-19T12:42:06.064Z,18.9
2023-05-19T12:43:06.285Z,19.1
2023-05-19T12:44:06.437Z,19.1
2023-05-19T12:45:06.181Z,19.2
2023-05-19T12:46:06.105Z,19.2
2023-05-19T12:47:06.268Z,19.2
2023-05-19T12:48:06.945Z,19.2
2023-05-19T12:49:05.927Z,19.2
2023-05-19T12:50:06.483Z,19.2
2023-05-19T12:51:06.343Z,19.2
2023-05-19T12:52:10.581Z,19.3
2023-05-19T12:53:06.434Z,19.3
2023-05-19T12:54:06.498Z,19.6
2023-05-19T12:55:06.606Z,19.6
2023-05-19T12:56:06.204Z,19.6
2023-05-19T12:57:06.353Z,19.7
2023-05-19T12:58:06.709Z,21
2023-05-19T12:59:05.990Z,21
2023-05-19T13:00:06.515Z,19.6
2023-05-19T13:01:06.569Z,19.4
2023-05-19T13:02:06.758Z,19.1
2023-05-19T13:03:06.007Z,19
2023-05-19T13:04:06.550Z,19
2023-05-19T13:05:06.462Z,19
2023-05-19T13:06:06.032Z,19
2023-05-19T13:07:06.110Z,19
2023-05-19T13:08:06.614Z,19
2023-05-19T13:09:05.814Z,19
2023-05-19T13:10:05.951Z,19
2023-05-19T13:11:06.616Z,19
2023-05-19T13:12:06.066Z,19.3
2023-05-19T13:13:06.217Z,19.3
2023-05-19T13:14:06.155Z,19.3
2023-05-19T13:15:06.324Z,19.4
2023-05-19T13:16:04.898Z,19.4
2023-05-19T13:17:06.150Z,19.4
2023-05-19T13:18:06.150Z,19.4
2023-05-19T13:19:06.180Z,19.3
2023-05-19T13:20:05.743Z,19.2
2023-05-19T13:21:05.814Z,19.2
2023-05-19T13:22:05.951Z,19.2
2023-05-19T13:23:05.867Z,19.2
2023-05-19T13:24:05.782Z,19.2
2023-05-19T13:25:06.466Z,19.2
2023-05-19T13:26:06.112Z,19.2
2023-05-19T13:27:06.690Z,19.2
2023-05-19T13:28:05.693Z,19.2
2023-05-19T13:29:05.822Z,19.2
2023-05-19T13:30:06.351Z,19.1
2023-05-19T13:31:06.667Z,19.2
2023-05-19T13:32:05.974Z,19.1
2023-05-19T13:33:06.289Z,19.2
2023-05-19T13:34:06.338Z,19.2
2023-05-19T13:35:06.922Z,19.2
2023-05-19T13:36:05.816Z,19.2
2023-05-19T13:37:04.418Z,19.2
2023-05-19T13:38:06.064Z,19.2
2023-05-19T13:39:06.450Z,19.2